createdAt,value
2023-04-07T00:02:52.452Z,4.56
2023-04-07T00:07:58.394Z,4.59
2023-04-07T00:13:04.325Z,4.63
2023-04-07T00:18:10.366Z,4.68
2023-04-07T00:23:16.097Z,4.70
2023-04-07T00:28:21.973Z,4.68
2023-04-07T00:33:28.125Z,4.70
2023-04-07T00:38:33.922Z,4.73
2023-04-07T00:43:39.860Z,4.76
2023-04-07T00:48:46.250Z,4.76
2023-04-07T00:53:52.815Z,4.80
2023-04-07T00:58:58.694Z,4.80
2023-04-07T01:04:14.419Z,4.80
2023-04-07T01:09:27.570Z,4.77
2023-04-07T01:14:40.765Z,4.79
2023-04-07T01:19:54.386Z,4.79
2023-04-07T01:25:42.200Z,4.76
2023-04-07T01:30:49.294Z,4.70
2023-04-07T01:35:58.350Z,4.73
2023-04-07T01:41:05.045Z,4.73
2023-04-07T01:46:11.148Z,4.76
2023-04-07T01:51:18.486Z,4.80
2023-04-07T01:56:24.115Z,4.82
2023-04-07T02:01:30.528Z,4.85
2023-04-07T02:06:48.692Z,4.86
2023-04-07T02:11:58.671Z,4.93
2023-04-07T02:17:07.372Z,5.00
2023-04-07T02:22:14.018Z,4.97
2023-04-07T02:27:20.257Z,4.99
2023-04-07T02:32:26.022Z,5.02
2023-04-07T02:37:31.873Z,5.02
2023-04-07T02:42:37.488Z,5.07
2023-04-07T02:47:43.205Z,5.02
2023-04-07T02:52:49.060Z,5.02
2023-04-07T02:57:54.931Z,5.07
2023-04-07T03:03:01.375Z,5.08
2023-04-07T03:08:07.642Z,5.11
2023-04-07T03:13:16.094Z,5.14
2023-04-07T03:18:21.916Z,5.16
2023-04-07T03:23:28.974Z,5.17
2023-04-07T03:28:34.917Z,5.22
2023-04-07T03:33:40.613Z,5.25
2023-04-07T03:38:48.845Z,5.28
2023-04-07T03:43:54.734Z,5.30
2023-04-07T03:49:00.968Z,5.32
2023-04-07T03:54:07.453Z,5.32
2023-04-07T03:59:13.159Z,5.35
2023-04-07T04:04:18.912Z,5.32
2023-04-07T04:09:24.667Z,5.29
2023-04-07T04:14:30.425Z,5.26
2023-04-07T04:19:35.999Z,5.27
2023-04-07T04:24:41.978Z,5.31
2023-04-07T04:29:48.442Z,5.29
2023-04-07T04:34:54.301Z,5.32
2023-04-07T04:40:00.055Z,5.32
2023-04-07T04:45:08.404Z,5.36
2023-04-07T04:50:14.427Z,5.41
2023-04-07T04:55:20.636Z,5.49
2023-04-07T05:00:26.580Z,5.52
2023-04-07T05:05:32.650Z,5.56
2023-04-07T05:10:41.446Z,5.62
2023-04-07T05:15:47.176Z,5.69
2023-04-07T05:20:53.042Z,5.74
2023-04-07T05:25:58.773Z,5.80
2023-04-07T05:31:06.989Z,5.84
2023-04-07T05:36:13.490Z,5.89
2023-04-07T05:41:19.147Z,5.94
2023-04-07T05:46:25.049Z,6.03
2023-04-07T05:51:31.630Z,6.04
2023-04-07T05:56:37.343Z,6.03
2023-04-07T06:01:43.722Z,6.11
2023-04-07T06:06:50.211Z,6.17
2023-04-07T06:11:56.577Z,6.20
2023-04-07T06:17:02.741Z,6.22
2023-04-07T06:22:08.653Z,6.27
2023-04-07T06:27:14.522Z,6.32
2023-04-07T06:32:20.461Z,6.37
2023-04-07T06:37:26.315Z,6.41
2023-04-07T06:42:32.145Z,6.45
2023-04-07T06:47:38.364Z,6.46
2023-04-07T06:52:44.071Z,6.47
2023-04-07T06:57:51.952Z,6.54
2023-04-07T07:02:57.713Z,6.58
2023-04-07T07:08:03.506Z,6.63
2023-04-07T07:13:09.229Z,6.70
2023-04-07T07:18:15.474Z,6.82
2023-04-07T07:23:21.024Z,6.95
2023-04-07T07:28:28.543Z,7.04
2023-04-07T07:33:34.733Z,7.08
2023-04-07T07:38:41.164Z,7.08
2023-04-07T07:43:47.160Z,7.13
2023-04-07T07:48:53.326Z,7.16
2023-04-07T07:53:59.068Z,7.24
2023-04-07T07:59:06.449Z,7.26
2023-04-07T08:04:12.390Z,7.33
2023-04-07T08:09:18.339Z,7.40
2023-04-07T08:14:24.245Z,7.41
2023-04-07T08:19:29.913Z,7.44
2023-04-07T08:24:35.530Z,7.55
2023-04-07T08:29:41.075Z,7.72
2023-04-07T08:34:46.675Z,7.97
2023-04-07T08:39:52.190Z,8.12
2023-04-07T08:45:02.455Z,8.27
2023-04-07T08:50:12.002Z,8.65
2023-04-07T08:55:17.777Z,8.90
2023-04-07T09:00:23.790Z,8.83
2023-04-07T09:05:31.319Z,8.86
2023-04-07T09:10:37.592Z,9.17
2023-04-07T09:15:43.507Z,9.37
2023-04-07T09:21:04.509Z,9.58
2023-04-07T09:26:26.872Z,9.55
2023-04-07T09:31:50.271Z,9.44
2023-04-07T09:36:56.328Z,9.48
2023-04-07T09:42:09.032Z,9.54
2023-04-07T09:47:15.573Z,9.70
2023-04-07T09:52:23.161Z,9.93
2023-04-07T09:57:28.732Z,10.04
2023-04-07T10:02:34.733Z,10.17
2023-04-07T10:07:42.431Z,10.30
2023-04-07T10:12:53.042Z,10.83
2023-04-07T10:18:00.065Z,11.36
2023-04-07T10:23:17.956Z,11.73
2023-04-07T10:28:27.597Z,11.94
2023-04-07T10:33:49.099Z,11.95
2023-04-07T10:39:23.789Z,11.77
2023-04-07T10:44:50.285Z,11.64
2023-04-07T10:50:23.909Z,11.63
2023-04-07T10:55:39.080Z,11.68
2023-04-07T11:01:20.822Z,11.70
2023-04-07T11:06:26.796Z,11.89
2023-04-07T11:11:41.211Z,12.10
2023-04-07T11:16:46.809Z,12.28
2023-04-07T11:22:26.319Z,12.55
2023-04-07T11:27:35.675Z,12.93
2023-04-07T11:32:41.575Z,13.21
2023-04-07T11:37:47.262Z,13.44
2023-04-07T11:42:52.892Z,13.69
2023-04-07T11:47:58.494Z,13.84
2023-04-07T11:53:04.024Z,14.09
2023-04-07T11:58:11.740Z,14.27
2023-04-07T12:03:17.441Z,14.50
2023-04-07T12:08:36.713Z,14.74
2023-04-07T12:13:42.450Z,14.89
2023-04-07T12:18:48.055Z,14.89
2023-04-07T12:23:53.781Z,15.14
2023-04-07T12:29:04.662Z,15.50
2023-04-07T12:34:10.412Z,15.85
2023-04-07T12:39:16.741Z,15.98
2023-04-07T12:44:22.779Z,15.94
2023-04-07T12:49:28.436Z,16.01
2023-04-07T12:54:34.975Z,16.12
2023-04-07T12:59:40.833Z,16.28
2023-04-07T13:04:46.705Z,16.15
2023-04-07T13:09:52.198Z,16.07
2023-04-07T13:15:00.388Z,16.11
2023-04-07T13:20:08.534Z,16.17
2023-04-07T13:25:14.977Z,16.22
2023-04-07T13:30:22.709Z,16.27
2023-04-07T13:35:30.000Z,16.34
2023-04-07T13:40:35.927Z,16.31
2023-04-07T13:45:41.622Z,16.23
2023-04-07T13:50:47.357Z,16.21
2023-04-07T13:55:52.885Z,16.30
2023-04-07T14:00:58.495Z,16.48
2023-04-07T14:06:05.048Z,16.58
2023-04-07T14:11:10.650Z,16.51
2023-04-07T14:16:16.538Z,16.54
2023-04-07T14:21:22.235Z,16.57
2023-04-07T14:26:27.867Z,16.47
2023-04-07T14:31:33.559Z,16.47
2023-04-07T14:36:39.319Z,16.45
2023-04-07T14:41:47.374Z,16.25
2023-04-07T14:46:53.041Z,16.11
2023-04-07T14:51:58.791Z,16.07
2023-04-07T14:57:04.544Z,15.96
2023-04-07T15:02:10.350Z,15.95
2023-04-07T15:07:16.433Z,15.92
2023-04-07T15:12:22.004Z,15.89
2023-04-07T15:17:40.172Z,15.82
2023-04-07T15:22:48.581Z,15.73
2023-04-07T15:27:54.142Z,15.66
2023-04-07T15:33:02.315Z,15.58
2023-04-07T15:38:07.897Z,15.48
2023-04-07T15:43:13.466Z,15.45
2023-04-07T15:48:20.209Z,15.45
2023-04-07T15:53:26.079Z,15.44
2023-04-07T15:58:32.399Z,15.42
2023-04-07T16:03:38.243Z,15.36
2023-04-07T16:08:43.910Z,15.32
2023-04-07T16:13:49.956Z,15.22
2023-04-07T16:18:55.969Z,15.14
2023-04-07T16:24:01.689Z,15.05
2023-04-07T16:29:07.345Z,15.00
2023-04-07T16:34:13.196Z,14.89
2023-04-07T16:39:18.948Z,14.50
2023-04-07T16:44:24.690Z,14.07
2023-04-07T16:49:30.349Z,13.74
2023-04-07T16:54:37.403Z,13.53
2023-04-07T16:59:43.105Z,13.39
2023-04-07T17:04:48.992Z,13.30
2023-04-07T17:09:54.595Z,13.20
2023-04-07T17:15:00.171Z,13.07
2023-04-07T17:20:07.473Z,12.91
2023-04-07T17:25:13.702Z,12.82
2023-04-07T17:30:19.936Z,12.77
2023-04-07T17:35:25.707Z,12.75
2023-04-07T17:40:31.658Z,12.70
2023-04-07T17:45:37.305Z,12.59
2023-04-07T17:50:45.494Z,12.51
2023-04-07T17:55:51.792Z,12.48
2023-04-07T18:00:57.568Z,12.42
2023-04-07T18:06:03.224Z,12.40
2023-04-07T18:11:08.896Z,12.41
2023-04-07T18:16:17.290Z,12.40
2023-04-07T18:21:24.622Z,12.37
2023-04-07T18:26:30.272Z,12.32
2023-04-07T18:31:36.041Z,12.31
2023-04-07T18:36:42.581Z,12.27
2023-04-07T18:41:48.305Z,12.18
2023-04-07T18:46:54.032Z,12.11
2023-04-07T18:51:59.977Z,12.05
2023-04-07T18:57:05.683Z,11.97
2023-04-07T19:02:11.518Z,11.89
2023-04-07T19:07:17.375Z,11.81
2023-04-07T19:12:23.074Z,11.78
2023-04-07T19:17:30.000Z,11.73
2023-04-07T19:22:35.922Z,11.64
2023-04-07T19:27:41.631Z,11.59
2023-04-07T19:32:47.725Z,11.55
2023-04-07T19:37:53.457Z,11.53
2023-04-07T19:42:59.206Z,11.54
2023-04-07T19:48:05.121Z,11.55
2023-04-07T19:53:15.496Z,11.53
2023-04-07T19:58:22.335Z,11.46
2023-04-07T20:03:28.287Z,11.41
2023-04-07T20:08:33.992Z,11.37
2023-04-07T20:13:40.250Z,11.38
2023-04-07T20:18:45.964Z,11.36
2023-04-07T20:23:51.692Z,11.29
2023-04-07T20:28:57.439Z,11.19
2023-04-07T20:34:03.605Z,11.12
2023-04-07T20:39:09.323Z,11.10
2023-04-07T20:44:15.456Z,11.05
2023-04-07T20:49:21.293Z,11.03
2023-04-07T20:54:29.222Z,11.05
2023-04-07T20:59:34.949Z,11.04
2023-04-07T21:04:40.640Z,10.93
2023-04-07T21:09:46.295Z,10.72
2023-04-07T21:14:51.964Z,10.55
2023-04-07T21:19:57.523Z,10.43
2023-04-07T21:25:06.585Z,10.33
2023-04-07T21:30:14.505Z,10.19
2023-04-07T21:35:20.584Z,10.03
2023-04-07T21:40:26.715Z,9.92
2023-04-07T21:45:33.012Z,9.83
2023-04-07T21:50:38.744Z,9.77
2023-04-07T21:55:44.547Z,9.67
2023-04-07T22:00:50.296Z,9.55
2023-04-07T22:05:57.711Z,9.48
2023-04-07T22:11:03.347Z,9.41
2023-04-07T22:16:09.450Z,9.35
2023-04-07T22:21:15.033Z,9.23
2023-04-07T22:26:20.894Z,9.03
2023-04-07T22:31:26.565Z,8.87
2023-04-07T22:36:33.906Z,8.75
2023-04-07T22:41:39.521Z,8.57
2023-04-07T22:46:45.137Z,8.41
2023-04-07T22:51:50.824Z,8.32
2023-04-07T22:56:57.070Z,8.21
2023-04-07T23:02:02.800Z,8.13
2023-04-07T23:07:08.742Z,8.13
2023-04-07T23:12:14.324Z,8.06
2023-04-07T23:17:20.917Z,8.06
2023-04-07T23:22:26.680Z,8.04
2023-04-07T23:27:33.208Z,8.00
2023-04-07T23:32:38.950Z,7.95
2023-04-07T23:37:44.704Z,7.87
2023-04-07T23:42:50.297Z,7.74
2023-04-07T23:47:56.069Z,7.72
2023-04-07T23:53:02.474Z,7.65
2023-04-07T23:58:08.144Z,7.51
